sensor_id;sensor_type;location;lat;lon;timestamp;P1;durP1;ratioP1;P2;durP2;ratioP2
20627;SDS011;10473;42.734;24.258;2022-09-01T00:01:45;2.47;;;2.13;;
20627;SDS011;10473;42.734;24.258;2022-09-01T00:04:15;2.93;;;2.50;;
20627;SDS011;10473;42.734;24.258;2022-09-01T00:06:46;2.53;;;2.30;;
20627;SDS011;10473;42.734;24.258;2022-09-01T00:09:16;4.67;;;2.53;;
20627;SDS011;10473;42.734;24.258;2022-09-01T00:11:46;4.03;;;2.60;;
20627;SDS011;10473;42.734;24.258;2022-09-01T00:14:17;3.83;;;2.90;;
20627;SDS011;10473;42.734;24.258;2022-09-01T00:16:46;5.63;;;2.40;;
20627;SDS011;10473;42.734;24.258;2022-09-01T00:19:13;4.63;;;2.70;;
20627;SDS011;10473;42.734;24.258;2022-09-01T00:21:42;3.10;;;2.60;;
20627;SDS011;10473;42.734;24.258;2022-09-01T00:24:13;4.63;;;3.03;;
20627;SDS011;10473;42.734;24.258;2022-09-01T00:26:42;7.90;;;2.80;;
20627;SDS011;10473;42.734;24.258;2022-09-01T00:29:10;3.03;;;2.47;;
20627;SDS011;10473;42.734;24.258;2022-09-01T00:31:38;2.70;;;2.33;;
20627;SDS011;10473;42.734;24.258;2022-09-01T00:34:07;5.30;;;2.43;;
20627;SDS011;10473;42.734;24.258;2022-09-01T00:36:35;3.47;;;3.03;;
20627;SDS011;10473;42.734;24.258;2022-09-01T00:39:03;3.17;;;2.40;;
20627;SDS011;10473;42.734;24.258;2022-09-01T00:41:35;6.07;;;3.33;;
20627;SDS011;10473;42.734;24.258;2022-09-01T00:44:05;6.30;;;3.27;;
20627;SDS011;10473;42.734;24.258;2022-09-01T00:46:37;3.30;;;2.93;;
20627;SDS011;10473;42.734;24.258;2022-09-01T00:49:07;3.93;;;3.07;;
20627;SDS011;10473;42.734;24.258;2022-09-01T00:51:38;5.67;;;2.60;;
20627;SDS011;10473;42.734;24.258;2022-09-01T00:54:10;5.37;;;2.80;;
20627;SDS011;10473;42.734;24.258;2022-09-01T00:56:43;3.10;;;2.67;;
20627;SDS011;10473;42.734;24.258;2022-09-01T00:59:12;6.67;;;3.43;;
20627;SDS011;10473;42.734;24.258;2022-09-01T01:01:43;4.70;;;3.23;;
20627;SDS011;10473;42.734;24.258;2022-09-01T01:04:11;6.73;;;3.57;;
20627;SDS011;10473;42.734;24.258;2022-09-01T01:06:40;5.43;;;3.50;;
20627;SDS011;10473;42.734;24.258;2022-09-01T01:09:14;5.97;;;4.27;;
20627;SDS011;10473;42.734;24.258;2022-09-01T01:11:44;3.43;;;2.57;;
20627;SDS011;10473;42.734;24.258;2022-09-01T01:14:13;7.70;;;3.33;;
20627;SDS011;10473;42.734;24.258;2022-09-01T01:16:43;4.07;;;3.03;;
20627;SDS011;10473;42.734;24.258;2022-09-01T01:19:14;4.67;;;3.43;;
20627;SDS011;10473;42.734;24.258;2022-09-01T01:22:01;6.73;;;2.97;;
20627;SDS011;10473;42.734;24.258;2022-09-01T01:24:49;6.00;;;3.50;;
20627;SDS011;10473;42.734;24.258;2022-09-01T01:27:18;3.67;;;3.10;;
20627;SDS011;10473;42.734;24.258;2022-09-01T01:29:47;4.17;;;3.20;;
20627;SDS011;10473;42.734;24.258;2022-09-01T01:32:15;6.90;;;3.03;;
20627;SDS011;10473;42.734;24.258;2022-09-01T01:34:43;7.27;;;3.50;;
20627;SDS011;10473;42.734;24.258;2022-09-01T01:37:12;4.37;;;3.10;;
20627;SDS011;10473;42.734;24.258;2022-09-01T01:39:40;7.30;;;2.90;;
20627;SDS011;10473;42.734;24.258;2022-09-01T01:42:11;3.50;;;2.97;;
20627;SDS011;10473;42.734;24.258;2022-09-01T01:44:39;8.00;;;3.17;;
20627;SDS011;10473;42.734;24.258;2022-09-01T01:47:09;5.17;;;2.93;;
20627;SDS011;10473;42.734;24.258;2022-09-01T01:49:39;3.80;;;3.13;;
20627;SDS011;10473;42.734;24.258;2022-09-01T01:52:09;8.97;;;3.43;;
20627;SDS011;10473;42.734;24.258;2022-09-01T01:54:41;6.07;;;3.63;;
20627;SDS011;10473;42.734;24.258;2022-09-01T01:57:13;6.77;;;3.43;;
20627;SDS011;10473;42.734;24.258;2022-09-01T01:59:43;4.93;;;3.40;;
20627;SDS011;10473;42.734;24.258;2022-09-01T02:02:12;3.63;;;2.77;;
20627;SDS011;10473;42.734;24.258;2022-09-01T02:04:39;4.90;;;3.30;;
20627;SDS011;10473;42.734;24.258;2022-09-01T02:07:10;3.27;;;2.87;;
20627;SDS011;10473;42.734;24.258;2022-09-01T02:09:39;5.07;;;3.23;;
20627;SDS011;10473;42.734;24.258;2022-09-01T02:12:10;7.57;;;3.40;;
20627;SDS011;10473;42.734;24.258;2022-09-01T02:14:40;5.10;;;3.10;;
20627;SDS011;10473;42.734;24.258;2022-09-01T02:17:08;3.77;;;3.13;;
20627;SDS011;10473;42.734;24.258;2022-09-01T02:19:36;4.50;;;3.30;;
20627;SDS011;10473;42.734;24.258;2022-09-01T02:22:07;3.73;;;3.13;;
20627;SDS011;10473;42.734;24.258;2022-09-01T02:24:36;3.37;;;2.80;;
20627;SDS011;10473;42.734;24.258;2022-09-01T02:27:11;5.53;;;3.40;;
20627;SDS011;10473;42.734;24.258;2022-09-01T02:29:42;3.87;;;3.43;;
20627;SDS011;10473;42.734;24.258;2022-09-01T02:32:09;5.53;;;3.33;;
20627;SDS011;10473;42.734;24.258;2022-09-01T02:34:37;4.43;;;3.23;;
20627;SDS011;10473;42.734;24.258;2022-09-01T02:37:05;4.17;;;3.27;;
20627;SDS011;10473;42.734;24.258;2022-09-01T02:39:33;3.77;;;3.37;;
20627;SDS011;10473;42.734;24.258;2022-09-01T02:42:01;5.47;;;3.60;;
20627;SDS011;10473;42.734;24.258;2022-09-01T02:44:29;6.27;;;3.67;;
20627;SDS011;10473;42.734;24.258;2022-09-01T02:47:00;6.07;;;3.50;;
20627;SDS011;10473;42.734;24.258;2022-09-01T02:49:30;6.20;;;3.97;;
20627;SDS011;10473;42.734;24.258;2022-09-01T02:51:58;5.60;;;3.90;;
20627;SDS011;10473;42.734;24.258;2022-09-01T02:54:29;9.60;;;6.37;;
20627;SDS011;10473;42.734;24.258;2022-09-01T02:56:58;8.60;;;7.73;;
20627;SDS011;10473;42.734;24.258;2022-09-01T02:59:26;11.20;;;7.10;;
20627;SDS011;10473;42.734;24.258;2022-09-01T03:02:01;8.50;;;5.73;;
20627;SDS011;10473;42.734;24.258;2022-09-01T03:04:29;10.00;;;8.17;;
20627;SDS011;10473;42.734;24.258;2022-09-01T03:07:00;11.93;;;6.37;;
20627;SDS011;10473;42.734;24.258;2022-09-01T03:09:29;6.87;;;6.17;;
20627;SDS011;10473;42.734;24.258;2022-09-01T03:11:58;6.47;;;5.07;;
20627;SDS011;10473;42.734;24.258;2022-09-01T03:14:26;6.40;;;4.00;;
20627;SDS011;10473;42.734;24.258;2022-09-01T03:16:55;5.50;;;4.23;;
20627;SDS011;10473;42.734;24.258;2022-09-01T03:19:26;5.47;;;4.47;;
20627;SDS011;10473;42.734;24.258;2022-09-01T03:21:56;5.17;;;4.37;;
20627;SDS011;10473;42.734;24.258;2022-09-01T03:24:28;4.90;;;4.40;;
20627;SDS011;10473;42.734;24.258;2022-09-01T03:26:57;5.23;;;3.70;;
20627;SDS011;10473;42.734;24.258;2022-09-01T03:29:26;5.87;;;4.20;;
20627;SDS011;10473;42.734;24.258;2022-09-01T03:31:54;5.57;;;4.23;;
20627;SDS011;10473;42.734;24.258;2022-09-01T03:34:22;6.03;;;3.67;;
20627;SDS011;10473;42.734;24.258;2022-09-01T03:36:54;5.57;;;3.77;;
20627;SDS011;10473;42.734;24.258;2022-09-01T03:39:26;6.23;;;4.27;;
20627;SDS011;10473;42.734;24.258;2022-09-01T03:41:55;7.47;;;4.80;;
20627;SDS011;10473;42.734;24.258;2022-09-01T03:44:23;7.43;;;4.77;;
20627;SDS011;10473;42.734;24.258;2022-09-01T03:46:51;6.80;;;4.90;;
20627;SDS011;10473;42.734;24.258;2022-09-01T03:49:20;4.53;;;4.10;;
20627;SDS011;10473;42.734;24.258;2022-09-01T03:51:56;10.70;;;4.40;;
20627;SDS011;10473;42.734;24.258;2022-09-01T03:54:24;4.70;;;3.73;;
20627;SDS011;10473;42.734;24.258;2022-09-01T03:56:53;4.83;;;4.30;;
20627;SDS011;10473;42.734;24.258;2022-09-01T03:59:23;5.97;;;4.57;;
20627;SDS011;10473;42.734;24.258;2022-09-01T04:01:51;5.67;;;4.37;;
20627;SDS011;10473;42.734;24.258;2022-09-01T04:04:19;5.40;;;3.80;;
20627;SDS011;10473;42.734;24.258;2022-09-01T04:06:47;5.70;;;3.50;;
20627;SDS011;10473;42.734;24.258;2022-09-01T04:09:16;10.60;;;4.07;;
20627;SDS011;10473;42.734;24.258;2022-09-01T04:11:44;5.00;;;3.57;;
20627;SDS011;10473;42.734;24.258;2022-09-01T04:14:13;4.67;;;3.57;;
20627;SDS011;10473;42.734;24.258;2022-09-01T04:16:42;5.30;;;3.73;;
20627;SDS011;10473;42.734;24.258;2022-09-01T04:19:28;3.93;;;3.47;;
20627;SDS011;10473;42.734;24.258;2022-09-01T04:22:01;4.47;;;3.37;;
20627;SDS011;10473;42.734;24.258;2022-09-01T04:24:39;10.27;;;4.13;;
20627;SDS011;10473;42.734;24.258;2022-09-01T04:27:11;4.57;;;3.80;;
20627;SDS011;10473;42.734;24.258;2022-09-01T04:29:40;6.03;;;3.50;;
20627;SDS011;10473;42.734;24.258;2022-09-01T04:32:11;6.37;;;3.90;;
20627;SDS011;10473;42.734;24.258;2022-09-01T04:34:43;5.97;;;4.13;;
20627;SDS011;10473;42.734;24.258;2022-09-01T04:37:14;6.83;;;3.40;;
20627;SDS011;10473;42.734;24.258;2022-09-01T04:39:48;4.60;;;3.67;;
20627;SDS011;10473;42.734;24.258;2022-09-01T04:42:17;3.73;;;3.40;;
20627;SDS011;10473;42.734;24.258;2022-09-01T04:44:46;4.83;;;3.80;;
20627;SDS011;10473;42.734;24.258;2022-09-01T04:47:14;9.57;;;3.53;;
20627;SDS011;10473;42.734;24.258;2022-09-01T04:49:45;14.17;;;8.33;;
20627;SDS011;10473;42.734;24.258;2022-09-01T04:52:14;14.97;;;11.03;;
20627;SDS011;10473;42.734;24.258;2022-09-01T04:54:42;12.33;;;8.63;;
20627;SDS011;10473;42.734;24.258;2022-09-01T04:57:12;11.83;;;8.07;;
20627;SDS011;10473;42.734;24.258;2022-09-01T04:59:41;18.43;;;11.53;;
20627;SDS011;10473;42.734;24.258;2022-09-01T05:02:10;22.43;;;13.87;;
20627;SDS011;10473;42.734;24.258;2022-09-01T05:04:39;41.70;;;22.93;;
20627;SDS011;10473;42.734;24.258;2022-09-01T05:07:12;30.53;;;17.43;;
20627;SDS011;10473;42.734;24.258;2022-09-01T05:09:42;20.80;;;11.70;;
20627;SDS011;10473;42.734;24.258;2022-09-01T05:12:44;12.00;;;7.87;;
20627;SDS011;10473;42.734;24.258;2022-09-01T05:15:12;8.13;;;5.70;;
20627;SDS011;10473;42.734;24.258;2022-09-01T05:17:39;6.83;;;4.13;;
20627;SDS011;10473;42.734;24.258;2022-09-01T05:20:09;15.73;;;5.90;;
20627;SDS011;10473;42.734;24.258;2022-09-01T05:22:39;7.83;;;5.53;;
20627;SDS011;10473;42.734;24.258;2022-09-01T05:25:07;6.70;;;4.70;;
20627;SDS011;10473;42.734;24.258;2022-09-01T05:30:20;7.07;;;4.90;;
20627;SDS011;10473;42.734;24.258;2022-09-01T05:32:48;6.73;;;5.50;;
20627;SDS011;10473;42.734;24.258;2022-09-01T05:35:16;9.23;;;5.43;;
20627;SDS011;10473;42.734;24.258;2022-09-01T05:37:45;7.23;;;5.27;;
20627;SDS011;10473;42.734;24.258;2022-09-01T05:40:18;9.60;;;5.20;;
20627;SDS011;10473;42.734;24.258;2022-09-01T05:42:46;9.07;;;4.83;;
20627;SDS011;10473;42.734;24.258;2022-09-01T05:45:14;7.93;;;6.60;;
20627;SDS011;10473;42.734;24.258;2022-09-01T05:47:46;7.50;;;6.20;;
20627;SDS011;10473;42.734;24.258;2022-09-01T05:50:15;7.20;;;5.10;;
20627;SDS011;10473;42.734;24.258;2022-09-01T05:52:44;7.23;;;5.40;;
20627;SDS011;10473;42.734;24.258;2022-09-01T05:55:13;6.67;;;4.87;;
20627;SDS011;10473;42.734;24.258;2022-09-01T05:57:42;6.43;;;4.90;;
20627;SDS011;10473;42.734;24.258;2022-09-01T06:00:13;5.43;;;4.93;;
20627;SDS011;10473;42.734;24.258;2022-09-01T06:02:48;6.53;;;5.50;;
20627;SDS011;10473;42.734;24.258;2022-09-01T06:05:19;7.13;;;5.73;;
20627;SDS011;10473;42.734;24.258;2022-09-01T06:07:50;6.57;;;5.77;;
20627;SDS011;10473;42.734;24.258;2022-09-01T06:10:22;11.80;;;6.03;;
20627;SDS011;10473;42.734;24.258;2022-09-01T06:12:50;9.07;;;6.37;;
20627;SDS011;10473;42.734;24.258;2022-09-01T06:15:18;8.27;;;6.03;;
20627;SDS011;10473;42.734;24.258;2022-09-01T06:17:52;6.50;;;5.63;;
20627;SDS011;10473;42.734;24.258;2022-09-01T06:20:20;12.20;;;5.53;;
20627;SDS011;10473;42.734;24.258;2022-09-01T06:22:48;6.83;;;4.03;;
20627;SDS011;10473;42.734;24.258;2022-09-01T06:25:17;5.57;;;3.83;;
20627;SDS011;10473;42.734;24.258;2022-09-01T06:27:46;6.67;;;3.13;;
20627;SDS011;10473;42.734;24.258;2022-09-01T06:30:15;9.10;;;4.37;;
20627;SDS011;10473;42.734;24.258;2022-09-01T06:32:54;7.17;;;3.43;;
20627;SDS011;10473;42.734;24.258;2022-09-01T06:35:22;5.90;;;3.80;;
20627;SDS011;10473;42.734;24.258;2022-09-01T06:37:54;4.63;;;3.93;;
20627;SDS011;10473;42.734;24.258;2022-09-01T06:40:58;4.40;;;3.97;;
20627;SDS011;10473;42.734;24.258;2022-09-01T06:43:26;4.70;;;4.00;;
20627;SDS011;10473;42.734;24.258;2022-09-01T06:45:59;4.70;;;3.70;;
20627;SDS011;10473;42.734;24.258;2022-09-01T06:48:29;8.20;;;3.27;;
20627;SDS011;10473;42.734;24.258;2022-09-01T06:51:02;3.97;;;3.40;;
20627;SDS011;10473;42.734;24.258;2022-09-01T06:53:30;4.43;;;3.63;;
20627;SDS011;10473;42.734;24.258;2022-09-01T06:56:00;4.33;;;3.57;;
20627;SDS011;10473;42.734;24.258;2022-09-01T06:58:29;3.77;;;3.30;;
20627;SDS011;10473;42.734;24.258;2022-09-01T07:00:57;8.43;;;3.73;;
20627;SDS011;10473;42.734;24.258;2022-09-01T07:03:25;5.23;;;4.03;;
20627;SDS011;10473;42.734;24.258;2022-09-01T07:05:57;6.17;;;4.03;;
20627;SDS011;10473;42.734;24.258;2022-09-01T07:08:49;6.77;;;3.43;;
20627;SDS011;10473;42.734;24.258;2022-09-01T07:11:27;4.70;;;3.03;;
20627;SDS011;10473;42.734;24.258;2022-09-01T07:13:58;4.47;;;3.43;;
20627;SDS011;10473;42.734;24.258;2022-09-01T07:16:31;5.23;;;3.60;;
20627;SDS011;10473;42.734;24.258;2022-09-01T07:19:07;7.87;;;3.17;;
20627;SDS011;10473;42.734;24.258;2022-09-01T07:21:47;4.50;;;3.30;;
20627;SDS011;10473;42.734;24.258;2022-09-01T07:24:15;7.27;;;3.73;;
20627;SDS011;10473;42.734;24.258;2022-09-01T07:27:08;4.83;;;3.47;;
20627;SDS011;10473;42.734;24.258;2022-09-01T07:29:38;4.97;;;2.97;;
20627;SDS011;10473;42.734;24.258;2022-09-01T07:32:06;5.07;;;3.40;;
20627;SDS011;10473;42.734;24.258;2022-09-01T07:34:36;5.70;;;3.67;;
20627;SDS011;10473;42.734;24.258;2022-09-01T07:37:08;4.10;;;3.00;;
20627;SDS011;10473;42.734;24.258;2022-09-01T07:39:38;4.15;;;3.00;;
20627;SDS011;10473;42.734;24.258;2022-09-01T07:42:24;5.88;;;3.28;;
20627;SDS011;10473;42.734;24.258;2022-09-01T07:45:24;4.63;;;3.08;;
20627;SDS011;10473;42.734;24.258;2022-09-01T07:47:57;7.00;;;3.33;;
20627;SDS011;10473;42.734;24.258;2022-09-01T07:50:35;5.03;;;2.70;;
20627;SDS011;10473;42.734;24.258;2022-09-01T07:53:11;4.63;;;3.00;;
20627;SDS011;10473;42.734;24.258;2022-09-01T07:55:43;5.78;;;3.40;;
20627;SDS011;10473;42.734;24.258;2022-09-01T07:58:14;5.88;;;3.90;;
20627;SDS011;10473;42.734;24.258;2022-09-01T08:00:44;4.15;;;2.92;;
20627;SDS011;10473;42.734;24.258;2022-09-01T08:03:17;5.15;;;3.53;;
20627;SDS011;10473;42.734;24.258;2022-09-01T08:05:48;4.82;;;3.50;;
20627;SDS011;10473;42.734;24.258;2022-09-01T08:08:22;7.07;;;3.70;;
20627;SDS011;10473;42.734;24.258;2022-09-01T08:10:50;11.85;;;6.90;;
20627;SDS011;10473;42.734;24.258;2022-09-01T08:13:19;3.75;;;3.30;;
20627;SDS011;10473;42.734;24.258;2022-09-01T08:15:47;7.00;;;3.03;;
20627;SDS011;10473;42.734;24.258;2022-09-01T08:18:16;3.60;;;3.30;;
20627;SDS011;10473;42.734;24.258;2022-09-01T08:20:44;4.72;;;3.35;;
20627;SDS011;10473;42.734;24.258;2022-09-01T08:23:24;3.73;;;2.67;;
20627;SDS011;10473;42.734;24.258;2022-09-01T08:25:52;4.45;;;3.50;;
20627;SDS011;10473;42.734;24.258;2022-09-01T08:28:20;7.90;;;3.53;;
20627;SDS011;10473;42.734;24.258;2022-09-01T08:30:48;4.15;;;3.33;;
20627;SDS011;10473;42.734;24.258;2022-09-01T08:33:18;5.07;;;3.22;;
20627;SDS011;10473;42.734;24.258;2022-09-01T08:35:47;3.35;;;3.05;;
20627;SDS011;10473;42.734;24.258;2022-09-01T08:38:18;5.30;;;3.25;;
20627;SDS011;10473;42.734;24.258;2022-09-01T08:40:50;6.03;;;3.20;;
20627;SDS011;10473;42.734;24.258;2022-09-01T08:43:28;6.95;;;3.90;;
20627;SDS011;10473;42.734;24.258;2022-09-01T08:46:08;4.55;;;2.92;;
20627;SDS011;10473;42.734;24.258;2022-09-01T08:48:44;3.05;;;2.75;;
20627;SDS011;10473;42.734;24.258;2022-09-01T08:51:18;3.90;;;2.53;;
20627;SDS011;10473;42.734;24.258;2022-09-01T08:54:03;3.83;;;2.90;;
20627;SDS011;10473;42.734;24.258;2022-09-01T08:56:38;6.13;;;3.30;;
20627;SDS011;10473;42.734;24.258;2022-09-01T08:59:07;4.65;;;3.35;;
20627;SDS011;10473;42.734;24.258;2022-09-01T09:01:58;4.45;;;3.58;;
20627;SDS011;10473;42.734;24.258;2022-09-01T09:04:42;6.70;;;3.17;;
20627;SDS011;10473;42.734;24.258;2022-09-01T09:07:21;5.53;;;2.97;;
20627;SDS011;10473;42.734;24.258;2022-09-01T09:10:02;6.13;;;2.93;;
20627;SDS011;10473;42.734;24.258;2022-09-01T09:12:41;6.53;;;3.90;;
20627;SDS011;10473;42.734;24.258;2022-09-01T09:15:24;5.10;;;3.47;;
20627;SDS011;10473;42.734;24.258;2022-09-01T09:17:58;4.17;;;3.20;;
20627;SDS011;10473;42.734;24.258;2022-09-01T09:20:33;4.68;;;3.50;;
20627;SDS011;10473;42.734;24.258;2022-09-01T09:23:02;8.40;;;4.10;;
20627;SDS011;10473;42.734;24.258;2022-09-01T09:25:47;5.13;;;3.93;;
20627;SDS011;10473;42.734;24.258;2022-09-01T09:28:18;5.20;;;4.20;;
20627;SDS011;10473;42.734;24.258;2022-09-01T09:30:45;5.18;;;3.75;;
20627;SDS011;10473;42.734;24.258;2022-09-01T09:33:32;4.47;;;3.37;;
20627;SDS011;10473;42.734;24.258;2022-09-01T09:36:15;4.40;;;3.47;;
20627;SDS011;10473;42.734;24.258;2022-09-01T09:38:45;4.33;;;3.67;;
20627;SDS011;10473;42.734;24.258;2022-09-01T09:41:15;5.83;;;3.30;;
20627;SDS011;10473;42.734;24.258;2022-09-01T09:43:50;7.47;;;3.83;;
20627;SDS011;10473;42.734;24.258;2022-09-01T09:46:24;4.40;;;3.97;;
20627;SDS011;10473;42.734;24.258;2022-09-01T09:49:16;5.30;;;4.50;;
20627;SDS011;10473;42.734;24.258;2022-09-01T09:51:52;5.37;;;4.07;;
20627;SDS011;10473;42.734;24.258;2022-09-01T09:54:23;6.40;;;4.10;;
20627;SDS011;10473;42.734;24.258;2022-09-01T09:57:02;3.90;;;3.50;;
20627;SDS011;10473;42.734;24.258;2022-09-01T09:59:39;4.23;;;3.77;;
20627;SDS011;10473;42.734;24.258;2022-09-01T10:02:16;7.70;;;4.10;;
20627;SDS011;10473;42.734;24.258;2022-09-01T10:04:53;4.93;;;3.67;;
20627;SDS011;10473;42.734;24.258;2022-09-01T10:07:23;4.40;;;3.40;;
20627;SDS011;10473;42.734;24.258;2022-09-01T10:10:03;6.43;;;3.77;;
20627;SDS011;10473;42.734;24.258;2022-09-01T10:12:33;6.13;;;4.10;;
20627;SDS011;10473;42.734;24.258;2022-09-01T10:15:03;5.17;;;4.17;;
20627;SDS011;10473;42.734;24.258;2022-09-01T10:17:35;7.60;;;4.50;;
20627;SDS011;10473;42.734;24.258;2022-09-01T10:20:07;5.97;;;4.50;;
20627;SDS011;10473;42.734;24.258;2022-09-01T10:22:39;4.73;;;4.13;;
20627;SDS011;10473;42.734;24.258;2022-09-01T10:25:08;6.30;;;3.90;;
20627;SDS011;10473;42.734;24.258;2022-09-01T10:27:42;5.63;;;3.53;;
20627;SDS011;10473;42.734;24.258;2022-09-01T10:30:16;6.10;;;3.63;;
20627;SDS011;10473;42.734;24.258;2022-09-01T10:32:46;6.40;;;3.90;;
20627;SDS011;10473;42.734;24.258;2022-09-01T10:35:18;5.53;;;3.90;;
20627;SDS011;10473;42.734;24.258;2022-09-01T10:37:49;5.80;;;3.80;;
20627;SDS011;10473;42.734;24.258;2022-09-01T10:40:19;5.03;;;3.93;;
20627;SDS011;10473;42.734;24.258;2022-09-01T10:45:53;5.93;;;3.87;;
20627;SDS011;10473;42.734;24.258;2022-09-01T10:48:22;5.23;;;4.20;;
20627;SDS011;10473;42.734;24.258;2022-09-01T10:53:56;10.07;;;4.50;;
20627;SDS011;10473;42.734;24.258;2022-09-01T10:56:27;6.30;;;3.93;;
20627;SDS011;10473;42.734;24.258;2022-09-01T10:59:05;6.07;;;4.47;;
20627;SDS011;10473;42.734;24.258;2022-09-01T11:07:44;4.50;;;3.53;;
20627;SDS011;10473;42.734;24.258;2022-09-01T11:10:23;5.40;;;3.83;;
20627;SDS011;10473;42.734;24.258;2022-09-01T11:13:05;4.47;;;4.07;;
20627;SDS011;10473;42.734;24.258;2022-09-01T11:15:55;5.53;;;4.60;;
20627;SDS011;10473;42.734;24.258;2022-09-01T11:18:44;6.50;;;4.07;;
20627;SDS011;10473;42.734;24.258;2022-09-01T11:21:16;4.43;;;3.90;;
20627;SDS011;10473;42.734;24.258;2022-09-01T11:24:05;3.67;;;2.93;;
20627;SDS011;10473;42.734;24.258;2022-09-01T11:27:12;4.13;;;2.90;;
20627;SDS011;10473;42.734;24.258;2022-09-01T11:30:23;3.30;;;3.00;;
20627;SDS011;10473;42.734;24.258;2022-09-01T11:33:05;3.03;;;2.60;;
20627;SDS011;10473;42.734;24.258;2022-09-01T11:35:44;4.17;;;2.77;;
20627;SDS011;10473;42.734;24.258;2022-09-01T11:38:14;3.33;;;2.80;;
20627;SDS011;10473;42.734;24.258;2022-09-01T11:40:53;3.10;;;2.73;;
20627;SDS011;10473;42.734;24.258;2022-09-01T11:43:21;4.50;;;2.67;;
20627;SDS011;10473;42.734;24.258;2022-09-01T11:45:55;3.93;;;3.50;;
20627;SDS011;10473;42.734;24.258;2022-09-01T11:48:32;3.80;;;3.43;;
20627;SDS011;10473;42.734;24.258;2022-09-01T11:51:03;4.57;;;4.17;;
20627;SDS011;10473;42.734;24.258;2022-09-01T11:53:31;4.63;;;3.60;;
20627;SDS011;10473;42.734;24.258;2022-09-01T11:56:11;4.47;;;3.70;;
20627;SDS011;10473;42.734;24.258;2022-09-01T11:58:40;4.00;;;3.27;;
20627;SDS011;10473;42.734;24.258;2022-09-01T12:01:14;9.37;;;4.70;;
20627;SDS011;10473;42.734;24.258;2022-09-01T12:03:45;5.67;;;3.97;;
20627;SDS011;10473;42.734;24.258;2022-09-01T12:06:19;5.43;;;4.63;;
20627;SDS011;10473;42.734;24.258;2022-09-01T12:08:53;3.83;;;3.47;;
20627;SDS011;10473;42.734;24.258;2022-09-01T12:11:24;5.20;;;3.87;;
20627;SDS011;10473;42.734;24.258;2022-09-01T12:13:56;5.63;;;4.00;;
20627;SDS011;10473;42.734;24.258;2022-09-01T12:16:27;7.07;;;4.30;;
20627;SDS011;10473;42.734;24.258;2022-09-01T12:18:57;3.93;;;3.53;;
20627;SDS011;10473;42.734;24.258;2022-09-01T12:21:27;4.13;;;3.37;;
20627;SDS011;10473;42.734;24.258;2022-09-01T12:24:09;3.90;;;3.53;;
20627;SDS011;10473;42.734;24.258;2022-09-01T12:26:40;6.10;;;3.77;;
20627;SDS011;10473;42.734;24.258;2022-09-01T12:29:10;5.47;;;4.00;;
20627;SDS011;10473;42.734;24.258;2022-09-01T12:31:39;5.63;;;4.30;;
20627;SDS011;10473;42.734;24.258;2022-09-01T12:34:22;4.27;;;3.07;;
20627;SDS011;10473;42.734;24.258;2022-09-01T12:37:03;6.23;;;3.43;;
20627;SDS011;10473;42.734;24.258;2022-09-01T12:39:34;7.10;;;3.50;;
20627;SDS011;10473;42.734;24.258;2022-09-01T12:42:04;5.97;;;3.70;;
20627;SDS011;10473;42.734;24.258;2022-09-01T12:44:45;5.77;;;3.80;;
20627;SDS011;10473;42.734;24.258;2022-09-01T12:53:21;5.30;;;3.27;;
20627;SDS011;10473;42.734;24.258;2022-09-01T12:59:06;3.33;;;3.03;;
20627;SDS011;10473;42.734;24.258;2022-09-01T13:01:37;4.50;;;3.03;;
20627;SDS011;10473;42.734;24.258;2022-09-01T13:04:14;6.07;;;3.50;;
20627;SDS011;10473;42.734;24.258;2022-09-01T13:06:54;4.10;;;3.70;;
20627;SDS011;10473;42.734;24.258;2022-09-01T13:09:24;5.10;;;3.20;;
20627;SDS011;10473;42.734;24.258;2022-09-01T13:12:00;11.17;;;3.50;;
20627;SDS011;10473;42.734;24.258;2022-09-01T13:14:36;5.93;;;3.13;;
20627;SDS011;10473;42.734;24.258;2022-09-01T13:17:03;5.13;;;3.80;;
20627;SDS011;10473;42.734;24.258;2022-09-01T13:19:32;4.10;;;3.70;;
20627;SDS011;10473;42.734;24.258;2022-09-01T13:21:59;6.30;;;3.57;;
20627;SDS011;10473;42.734;24.258;2022-09-01T13:24:28;8.33;;;3.40;;
20627;SDS011;10473;42.734;24.258;2022-09-01T13:26:56;4.97;;;3.47;;
20627;SDS011;10473;42.734;24.258;2022-09-01T13:29:25;7.30;;;4.47;;
20627;SDS011;10473;42.734;24.258;2022-09-01T13:31:53;5.13;;;3.23;;
20627;SDS011;10473;42.734;24.258;2022-09-01T13:34:22;4.40;;;2.90;;
20627;SDS011;10473;42.734;24.258;2022-09-01T13:36:50;4.97;;;3.77;;
20627;SDS011;10473;42.734;24.258;2022-09-01T13:39:19;4.90;;;3.67;;
20627;SDS011;10473;42.734;24.258;2022-09-01T13:41:53;4.47;;;3.67;;
20627;SDS011;10473;42.734;24.258;2022-09-01T13:44:21;5.77;;;3.60;;
20627;SDS011;10473;42.734;24.258;2022-09-01T13:46:49;5.73;;;3.83;;
20627;SDS011;10473;42.734;24.258;2022-09-01T13:49:16;4.83;;;3.40;;
20627;SDS011;10473;42.734;24.258;2022-09-01T13:51:49;4.67;;;3.17;;
20627;SDS011;10473;42.734;24.258;2022-09-01T13:54:17;4.30;;;3.30;;
20627;SDS011;10473;42.734;24.258;2022-09-01T13:56:44;5.23;;;3.40;;
20627;SDS011;10473;42.734;24.258;2022-09-01T13:59:14;5.00;;;3.63;;
20627;SDS011;10473;42.734;24.258;2022-09-01T14:01:41;5.53;;;3.50;;
20627;SDS011;10473;42.734;24.258;2022-09-01T14:04:10;7.47;;;4.03;;
20627;SDS011;10473;42.734;24.258;2022-09-01T14:06:38;4.37;;;3.70;;
20627;SDS011;10473;42.734;24.258;2022-09-01T14:09:06;3.87;;;3.47;;
20627;SDS011;10473;42.734;24.258;2022-09-01T14:11:34;8.57;;;4.40;;
20627;SDS011;10473;42.734;24.258;2022-09-01T14:14:02;3.23;;;2.93;;
20627;SDS011;10473;42.734;24.258;2022-09-01T14:16:31;5.30;;;3.63;;
20627;SDS011;10473;42.734;24.258;2022-09-01T14:18:59;5.63;;;3.97;;
20627;SDS011;10473;42.734;24.258;2022-09-01T14:21:28;5.23;;;3.47;;
20627;SDS011;10473;42.734;24.258;2022-09-01T14:23:55;3.87;;;3.40;;
20627;SDS011;10473;42.734;24.258;2022-09-01T14:26:24;5.20;;;3.70;;
20627;SDS011;10473;42.734;24.258;2022-09-01T14:28:52;4.50;;;3.27;;
20627;SDS011;10473;42.734;24.258;2022-09-01T14:31:20;5.17;;;3.47;;
20627;SDS011;10473;42.734;24.258;2022-09-01T14:33:50;3.93;;;2.80;;
20627;SDS011;10473;42.734;24.258;2022-09-01T14:36:20;8.27;;;4.20;;
20627;SDS011;10473;42.734;24.258;2022-09-01T14:38:50;4.30;;;3.20;;
20627;SDS011;10473;42.734;24.258;2022-09-01T14:41:19;6.37;;;3.80;;
20627;SDS011;10473;42.734;24.258;2022-09-01T14:43:49;4.30;;;3.40;;
20627;SDS011;10473;42.734;24.258;2022-09-01T14:46:18;3.90;;;3.50;;
20627;SDS011;10473;42.734;24.258;2022-09-01T14:48:46;3.83;;;3.30;;
20627;SDS011;10473;42.734;24.258;2022-09-01T14:51:21;4.10;;;3.70;;
20627;SDS011;10473;42.734;24.258;2022-09-01T14:53:50;5.43;;;3.63;;
20627;SDS011;10473;42.734;24.258;2022-09-01T14:56:19;4.73;;;3.57;;
20627;SDS011;10473;42.734;24.258;2022-09-01T14:58:47;4.33;;;3.70;;
20627;SDS011;10473;42.734;24.258;2022-09-01T15:01:17;5.57;;;4.23;;
20627;SDS011;10473;42.734;24.258;2022-09-01T15:03:47;3.43;;;3.00;;
20627;SDS011;10473;42.734;24.258;2022-09-01T15:06:16;5.17;;;3.60;;
20627;SDS011;10473;42.734;24.258;2022-09-01T15:08:51;5.13;;;3.63;;
20627;SDS011;10473;42.734;24.258;2022-09-01T15:11:19;6.77;;;3.40;;
20627;SDS011;10473;42.734;24.258;2022-09-01T15:13:46;4.37;;;3.53;;
20627;SDS011;10473;42.734;24.258;2022-09-01T15:16:19;7.70;;;3.90;;
20627;SDS011;10473;42.734;24.258;2022-09-01T15:18:48;3.10;;;2.77;;
20627;SDS011;10473;42.734;24.258;2022-09-01T15:21:18;3.93;;;3.60;;
20627;SDS011;10473;42.734;24.258;2022-09-01T15:23:48;6.83;;;3.90;;
20627;SDS011;10473;42.734;24.258;2022-09-01T15:26:16;5.00;;;3.30;;